Time;durP1;ratioP1;P1;durP2;ratioP2;P2;SDS_P1;SDS_P2;PMS_P1;PMS_P2;Temp;Humidity;BMP_temperature;BMP_pressure;BME280_temperature;BME280_humidity;BME280_pressure;Samples;Min_cycle;Max_cycle;Signal;HPM_P1;HPM_P2
2022/10/28 00:00:50;;;;;;;16.70;6.90;;;;;;;;;;4990324;28;20177;-61
2022/10/28 00:03:15;;;;;;;14.23;5.88;;;;;;;;;;4986771;28;20457;-61
2022/10/28 00:05:41;;;;;;;10.00;6.32;;;;;;;;;;4979568;28;20046;-61
2022/10/28 00:08:06;;;;;;;15.27;6.15;;;;;;;;;;4984487;28;20051;-61
2022/10/28 00:10:32;;;;;;;14.60;6.57;;;;;;;;;;4984933;28;20446;-60
2022/10/28 00:12:57;;;;;;;15.52;6.28;;;;;;;;;;4985681;28;20108;-61
2022/10/28 00:15:23;;;;;;;12.93;6.55;;;;;;;;;;4984534;28;20189;-61
2022/10/28 00:17:48;;;;;;;12.18;6.38;;;;;;;;;;4983655;28;20068;-61
2022/10/28 00:20:14;;;;;;;12.73;6.90;;;;;;;;;;4982522;28;20051;-61
2022/10/28 00:22:40;;;;;;;17.33;6.65;;;;;;;;;;4980107;28;20038;-60
2022/10/28 00:25:06;;;;;;;14.40;6.13;;;;;;;;;;4979708;28;20049;-61
2022/10/28 00:27:32;;;;;;;15.60;6.70;;;;;;;;;;4976752;28;20044;-61
2022/10/28 00:29:57;;;;;;;17.25;7.63;;;;;;;;;;4977219;28;20053;-62
2022/10/28 00:32:23;;;;;;;17.27;6.60;;;;;;;;;;4980853;28;20058;-62
2022/10/28 00:34:48;;;;;;;13.95;6.78;;;;;;;;;;4971663;28;20549;-60
2022/10/28 00:37:13;;;;;;;15.13;6.55;;;;;;;;;;4971734;28;20468;-61
2022/10/28 00:39:39;;;;;;;12.45;6.10;;;;;;;;;;4976845;28;20038;-63
2022/10/28 00:42:06;;;;;;;22.88;7.07;;;;;;;;;;4976692;28;20602;-60
2022/10/28 00:44:53;;;;;;;20.83;6.82;;;;;;;;;;4977826;28;20050;-62
2022/10/28 00:47:38;;;;;;;14.48;6.15;;;;;;;;;;4975995;28;20054;-62
2022/10/28 00:50:33;;;;;;;15.88;6.75;;;;;;;;;;4974967;28;20129;-61
2022/10/28 00:53:01;;;;;;;15.88;6.50;;;;;;;;;;4975029;28;20059;-62
2022/10/28 00:55:28;;;;;;;15.63;6.60;;;;;;;;;;4982146;28;20065;-64
2022/10/28 00:57:56;;;;;;;12.40;6.60;;;;;;;;;;4979038;28;20038;-60
2022/10/28 01:00:23;;;;;;;18.20;6.82;;;;;;;;;;4990765;28;20094;-63
2022/10/28 01:02:49;;;;;;;14.45;6.88;;;;;;;;;;4978129;28;20053;-66
2022/10/28 01:05:27;;;;;;;14.68;7.30;;;;;;;;;;4974266;28;20065;-62
2022/10/28 01:07:58;;;;;;;14.20;6.88;;;;;;;;;;4979527;28;20144;-61
2022/10/28 01:10:33;;;;;;;12.88;6.82;;;;;;;;;;4971737;28;20045;-60
2022/10/28 01:13:16;;;;;;;11.85;6.63;;;;;;;;;;4978716;28;20172;-62
2022/10/28 01:16:01;;;;;;;15.60;6.65;;;;;;;;;;4979329;28;20092;-62
2022/10/28 01:18:38;;;;;;;12.73;6.68;;;;;;;;;;4973239;28;20084;-62
2022/10/28 01:21:22;;;;;;;19.58;7.18;;;;;;;;;;4975750;28;20050;-61
2022/10/28 01:24:07;;;;;;;15.35;6.25;;;;;;;;;;4983225;28;20053;-61
2022/10/28 01:27:15;;;;;;;15.30;6.75;;;;;;;;;;4979791;28;20129;-61
2022/10/28 01:30:04;;;;;;;14.55;7.00;;;;;;;;;;4969131;28;20127;-66
2022/10/28 01:32:51;;;;;;;17.58;6.68;;;;;;;;;;4974821;28;20849;-62
2022/10/28 01:35:20;;;;;;;12.88;7.05;;;;;;;;;;4971352;28;20041;-62
2022/10/28 01:38:14;;;;;;;16.10;6.95;;;;;;;;;;4975559;28;20080;-61
2022/10/28 01:40:42;;;;;;;16.00;6.45;;;;;;;;;;4972486;28;20061;-61
2022/10/28 01:43:22;;;;;;;11.07;6.15;;;;;;;;;;4973345;28;20130;-62
2022/10/28 01:45:59;;;;;;;13.20;6.60;;;;;;;;;;4976908;28;20149;-63
2022/10/28 01:48:40;;;;;;;9.90;6.28;;;;;;;;;;4977240;28;20051;-61
2022/10/28 01:51:14;;;;;;;14.35;6.35;;;;;;;;;;4980827;28;20599;-61
2022/10/28 01:53:44;;;;;;;13.57;6.78;;;;;;;;;;4984527;28;20056;-61
2022/10/28 01:56:14;;;;;;;12.38;6.15;;;;;;;;;;4980502;28;20559;-60
2022/10/28 01:58:41;;;;;;;12.82;6.05;;;;;;;;;;4977596;28;20042;-61
2022/10/28 02:01:09;;;;;;;11.73;6.20;;;;;;;;;;4975584;28;20127;-62
2022/10/28 02:03:34;;;;;;;13.82;5.95;;;;;;;;;;4978436;28;20101;-60
2022/10/28 02:06:03;;;;;;;14.50;6.60;;;;;;;;;;4978235;28;20058;-61
2022/10/28 02:08:37;;;;;;;12.25;5.97;;;;;;;;;;4977142;28;20161;-61
2022/10/28 02:11:21;;;;;;;11.73;6.05;;;;;;;;;;4975779;28;20042;-61
2022/10/28 02:14:19;;;;;;;13.13;6.32;;;;;;;;;;4973368;28;20458;-61
2022/10/28 02:16:49;;;;;;;11.32;6.15;;;;;;;;;;4973241;28;20058;-62
2022/10/28 02:19:42;;;;;;;14.05;5.47;;;;;;;;;;4973985;28;20058;-61
2022/10/28 02:22:33;;;;;;;10.25;5.53;;;;;;;;;;4974800;28;20097;-61
2022/10/28 02:25:08;;;;;;;14.20;6.10;;;;;;;;;;4972408;28;20673;-62
2022/10/28 02:27:57;;;;;;;10.02;5.85;;;;;;;;;;4974543;28;20652;-62
2022/10/28 02:30:27;;;;;;;16.73;6.05;;;;;;;;;;4978341;28;20458;-61
2022/10/28 02:32:58;;;;;;;13.63;5.78;;;;;;;;;;4977991;28;20043;-62
2022/10/28 02:35:57;;;;;;;12.68;6.05;;;;;;;;;;4981924;28;20326;-61
2022/10/28 02:38:37;;;;;;;10.95;6.35;;;;;;;;;;4975773;28;20061;-62
2022/10/28 02:41:10;;;;;;;14.73;6.30;;;;;;;;;;4971804;28;20078;-62
2022/10/28 02:43:38;;;;;;;15.10;6.22;;;;;;;;;;4972736;28;20046;-61
2022/10/28 02:46:05;;;;;;;15.40;6.85;;;;;;;;;;4974481;28;20045;-61
2022/10/28 02:48:37;;;;;;;10.48;5.95;;;;;;;;;;4972155;28;20581;-60
2022/10/28 02:51:22;;;;;;;12.73;6.57;;;;;;;;;;4974978;28;20548;-62
2022/10/28 02:54:10;;;;;;;13.15;6.95;;;;;;;;;;4974888;28;20084;-61
2022/10/28 02:56:46;;;;;;;16.23;6.20;;;;;;;;;;4973073;28;20549;-61
2022/10/28 02:59:12;;;;;;;13.57;5.90;;;;;;;;;;4972818;28;20209;-60
2022/10/28 03:01:38;;;;;;;10.68;6.18;;;;;;;;;;4981578;28;20050;-61
2022/10/28 03:04:04;;;;;;;14.65;6.57;;;;;;;;;;4978373;28;20350;-61
2022/10/28 03:06:30;;;;;;;13.10;5.88;;;;;;;;;;4982869;28;20042;-62
2022/10/28 03:08:55;;;;;;;13.60;6.10;;;;;;;;;;4983129;28;20051;-61
2022/10/28 03:11:21;;;;;;;12.93;5.63;;;;;;;;;;4972872;28;20146;-61
2022/10/28 03:13:46;;;;;;;10.93;5.05;;;;;;;;;;4978705;28;20057;-63
2022/10/28 03:16:12;;;;;;;17.58;6.03;;;;;;;;;;4976694;28;20038;-63
2022/10/28 03:18:37;;;;;;;15.27;5.75;;;;;;;;;;4982116;28;20042;-61
2022/10/28 03:21:03;;;;;;;8.82;5.40;;;;;;;;;;4974481;28;20057;-61
2022/10/28 03:23:28;;;;;;;12.73;5.50;;;;;;;;;;4977206;28;21980;-61
2022/10/28 03:25:53;;;;;;;13.48;5.40;;;;;;;;;;4978307;28;20054;-61
2022/10/28 03:28:19;;;;;;;9.50;5.78;;;;;;;;;;4958007;28;20070;-61
2022/10/28 03:30:44;;;;;;;8.07;5.03;;;;;;;;;;4984172;28;20116;-61
2022/10/28 03:33:10;;;;;;;9.43;5.47;;;;;;;;;;4974727;28;20112;-63
2022/10/28 03:35:35;;;;;;;10.15;5.28;;;;;;;;;;4980952;28;20061;-60
2022/10/28 03:38:00;;;;;;;11.60;5.75;;;;;;;;;;4983461;28;20058;-61
2022/10/28 03:40:26;;;;;;;12.07;5.60;;;;;;;;;;4982639;28;20497;-61
2022/10/28 03:42:51;;;;;;;10.50;5.00;;;;;;;;;;4976984;28;20041;-62
2022/10/28 03:45:17;;;;;;;10.95;5.65;;;;;;;;;;4971569;28;20410;-60
2022/10/28 03:47:42;;;;;;;12.80;5.72;;;;;;;;;;4975165;28;20106;-61
2022/10/28 03:50:08;;;;;;;12.68;5.00;;;;;;;;;;4983818;28;20062;-61
2022/10/28 03:52:33;;;;;;;14.60;5.60;;;;;;;;;;4981698;28;20067;-60
2022/10/28 03:54:59;;;;;;;15.82;5.25;;;;;;;;;;4981746;28;20474;-61
2022/10/28 03:57:24;;;;;;;14.90;6.13;;;;;;;;;;4976581;28;20077;-60
2022/10/28 03:59:50;;;;;;;12.82;6.15;;;;;;;;;;4983980;28;20077;-60
2022/10/28 04:02:15;;;;;;;12.73;5.85;;;;;;;;;;4982598;28;20413;-61
2022/10/28 04:04:40;;;;;;;14.85;6.72;;;;;;;;;;4984026;28;20046;-60
2022/10/28 04:07:06;;;;;;;17.40;6.18;;;;;;;;;;4977100;28;20408;-60
2022/10/28 04:09:31;;;;;;;11.55;5.90;;;;;;;;;;4973862;28;20461;-61
2022/10/28 04:11:56;;;;;;;11.05;5.80;;;;;;;;;;4978552;28;20061;-61
2022/10/28 04:14:22;;;;;;;10.20;5.68;;;;;;;;;;4982757;28;20141;-61
2022/10/28 04:16:47;;;;;;;11.32;5.43;;;;;;;;;;4985681;28;20113;-61
2022/10/28 04:19:13;;;;;;;15.15;5.43;;;;;;;;;;4978695;28;20050;-62
2022/10/28 04:21:38;;;;;;;8.10;5.80;;;;;;;;;;4980264;28;20511;-62
2022/10/28 04:24:04;;;;;;;11.45;5.35;;;;;;;;;;4981247;28;20058;-62
2022/10/28 04:26:30;;;;;;;12.48;5.25;;;;;;;;;;4976909;28;20058;-60
2022/10/28 04:28:56;;;;;;;13.07;5.78;;;;;;;;;;4977095;28;20142;-62
2022/10/28 04:31:22;;;;;;;10.63;5.70;;;;;;;;;;4978621;28;20034;-61
2022/10/28 04:33:47;;;;;;;11.18;5.45;;;;;;;;;;4978272;28;20129;-61
2022/10/28 04:36:13;;;;;;;12.52;5.40;;;;;;;;;;4979334;28;20124;-62
2022/10/28 04:38:38;;;;;;;10.27;5.47;;;;;;;;;;4981218;28;20141;-61
2022/10/28 04:41:04;;;;;;;14.93;6.10;;;;;;;;;;4977278;28;20065;-62
2022/10/28 04:43:29;;;;;;;11.88;5.68;;;;;;;;;;4978722;28;20038;-61
2022/10/28 04:45:55;;;;;;;14.90;5.75;;;;;;;;;;4975344;28;20511;-61
2022/10/28 04:48:20;;;;;;;14.18;5.57;;;;;;;;;;4973743;28;20169;-61
2022/10/28 04:50:46;;;;;;;10.73;5.80;;;;;;;;;;4981387;28;20197;-61
2022/10/28 04:53:12;;;;;;;9.80;5.40;;;;;;;;;;4982293;28;20058;-61
2022/10/28 04:55:37;;;;;;;10.68;5.85;;;;;;;;;;4977306;28;20049;-65
2022/10/28 04:58:03;;;;;;;10.35;5.95;;;;;;;;;;4979531;28;20378;-62
2022/10/28 05:00:29;;;;;;;16.98;6.25;;;;;;;;;;4971914;28;20454;-61
2022/10/28 05:02:55;;;;;;;17.30;6.45;;;;;;;;;;4976383;28;20054;-61
2022/10/28 05:05:21;;;;;;;13.02;6.35;;;;;;;;;;4962677;28;20042;-62
2022/10/28 05:07:46;;;;;;;10.13;6.13;;;;;;;;;;4981048;28;20164;-60
2022/10/28 05:10:14;;;;;;;16.30;5.97;;;;;;;;;;4979985;28;20034;-67
2022/10/28 05:12:44;;;;;;;11.88;5.70;;;;;;;;;;4976515;28;20039;-67
2022/10/28 05:15:10;;;;;;;15.45;6.45;;;;;;;;;;4973029;28;20128;-67
2022/10/28 05:17:42;;;;;;;15.80;6.43;;;;;;;;;;4975382;28;20054;-68
2022/10/28 05:20:08;;;;;;;12.05;6.47;;;;;;;;;;4976323;28;20065;-67
2022/10/28 05:22:34;;;;;;;10.77;5.85;;;;;;;;;;4976047;28;20165;-68
2022/10/28 05:24:59;;;;;;;16.48;6.60;;;;;;;;;;4981477;28;20151;-66
2022/10/28 05:27:25;;;;;;;12.77;5.97;;;;;;;;;;4979018;28;20441;-67
2022/10/28 05:29:50;;;;;;;12.00;6.05;;;;;;;;;;4983477;28;20054;-67
2022/10/28 05:32:16;;;;;;;13.00;6.10;;;;;;;;;;4979174;28;20046;-67
2022/10/28 05:34:41;;;;;;;13.45;6.45;;;;;;;;;;4978011;28;20112;-69
2022/10/28 05:37:06;;;;;;;14.75;6.72;;;;;;;;;;4977471;28;21447;-68
2022/10/28 05:39:32;;;;;;;12.48;6.40;;;;;;;;;;4982563;28;20058;-68
2022/10/28 05:41:57;;;;;;;10.77;6.30;;;;;;;;;;4979338;28;20165;-68
2022/10/28 05:44:22;;;;;;;12.57;6.78;;;;;;;;;;4974767;28;20738;-67
2022/10/28 05:46:48;;;;;;;12.05;7.22;;;;;;;;;;4972706;28;20054;-67
2022/10/28 05:49:19;;;;;;;18.70;7.65;;;;;;;;;;4983022;28;20070;-73
2022/10/28 05:51:45;;;;;;;18.30;7.60;;;;;;;;;;4978105;28;20042;-71
2022/10/28 05:54:10;;;;;;;14.90;8.05;;;;;;;;;;4976644;28;20034;-68
2022/10/28 05:56:35;;;;;;;15.82;7.47;;;;;;;;;;4976010;28;20516;-69
2022/10/28 05:59:01;;;;;;;13.45;8.05;;;;;;;;;;4977545;28;20062;-67
2022/10/28 06:01:26;;;;;;;18.35;7.65;;;;;;;;;;4977739;28;20474;-69
2022/10/28 06:03:52;;;;;;;19.65;7.45;;;;;;;;;;4979617;28;20475;-66
2022/10/28 06:06:17;;;;;;;18.50;7.20;;;;;;;;;;4972982;28;20157;-67
2022/10/28 06:08:42;;;;;;;15.77;7.25;;;;;;;;;;4982689;28;20046;-67
2022/10/28 06:11:08;;;;;;;15.15;7.45;;;;;;;;;;4977568;28;20527;-66
2022/10/28 06:13:33;;;;;;;19.90;8.05;;;;;;;;;;4978311;28;20042;-66
2022/10/28 06:15:58;;;;;;;17.92;7.60;;;;;;;;;;4975862;28;20030;-70
2022/10/28 06:18:24;;;;;;;19.05;7.75;;;;;;;;;;4977087;28;20201;-66
2022/10/28 06:20:53;;;;;;;13.10;7.22;;;;;;;;;;4974488;28;20520;-67
2022/10/28 06:23:19;;;;;;;13.00;7.07;;;;;;;;;;4979177;28;20096;-65
2022/10/28 06:25:44;;;;;;;14.75;7.03;;;;;;;;;;4973273;28;20062;-64
2022/10/28 06:28:09;;;;;;;13.75;7.50;;;;;;;;;;4973722;28;20030;-65
2022/10/28 06:30:35;;;;;;;14.55;7.38;;;;;;;;;;4971312;28;20112;-65
2022/10/28 06:33:00;;;;;;;15.77;7.90;;;;;;;;;;4982823;28;20046;-66
2022/10/28 06:35:26;;;;;;;14.73;7.68;;;;;;;;;;4976247;28;20042;-65
2022/10/28 06:37:57;;;;;;;14.30;7.68;;;;;;;;;;4981924;28;20096;-65
2022/10/28 06:40:24;;;;;;;25.10;8.20;;;;;;;;;;4977572;28;20022;-65
2022/10/28 06:43:06;;;;;;;15.25;7.97;;;;;;;;;;4982842;28;20489;-65
2022/10/28 06:45:33;;;;;;;15.95;7.97;;;;;;;;;;4978530;28;20073;-66
2022/10/28 06:48:04;;;;;;;22.20;8.77;;;;;;;;;;4981548;28;20054;-64
2022/10/28 06:50:31;;;;;;;14.38;8.02;;;;;;;;;;4980732;28;21025;-64
2022/10/28 06:52:57;;;;;;;15.20;8.75;;;;;;;;;;4979096;28;20553;-65
2022/10/28 06:55:24;;;;;;;20.80;8.32;;;;;;;;;;4980946;28;20038;-65
2022/10/28 06:57:49;;;;;;;22.45;8.55;;;;;;;;;;4977381;28;20167;-66
2022/10/28 07:00:15;;;;;;;22.75;9.13;;;;;;;;;;4972809;28;20062;-64
2022/10/28 07:02:41;;;;;;;15.25;8.20;;;;;;;;;;4980332;28;20070;-68
2022/10/28 07:05:07;;;;;;;13.95;7.95;;;;;;;;;;4974106;28;20875;-64
2022/10/28 07:07:36;;;;;;;21.70;8.80;;;;;;;;;;4976078;28;20532;-64
2022/10/28 07:10:02;;;;;;;14.43;7.35;;;;;;;;;;4978553;28;20053;-65
2022/10/28 07:12:27;;;;;;;14.57;7.80;;;;;;;;;;4983386;28;20093;-64
2022/10/28 07:14:53;;;;;;;22.88;8.75;;;;;;;;;;4983681;28;20506;-67
2022/10/28 07:17:18;;;;;;;20.83;7.90;;;;;;;;;;4976993;28;20073;-63
2022/10/28 07:19:44;;;;;;;21.23;8.50;;;;;;;;;;4980628;28;20093;-63
2022/10/28 07:22:09;;;;;;;16.35;7.18;;;;;;;;;;4978132;28;20042;-66
2022/10/28 07:24:34;;;;;;;12.07;6.22;;;;;;;;;;4978541;28;20061;-64
2022/10/28 07:27:00;;;;;;;15.43;6.30;;;;;;;;;;4980607;28;20137;-66
2022/10/28 07:29:25;;;;;;;17.08;7.05;;;;;;;;;;4980874;28;20058;-65
2022/10/28 07:31:53;;;;;;;25.38;6.72;;;;;;;;;;4982278;28;20568;-64
2022/10/28 07:34:20;;;;;;;16.60;6.75;;;;;;;;;;4984515;28;20034;-63
2022/10/28 07:36:49;;;;;;;15.40;6.63;;;;;;;;;;4976972;28;20050;-64
2022/10/28 07:39:14;;;;;;;21.05;6.38;;;;;;;;;;4974063;28;20126;-65
2022/10/28 07:41:39;;;;;;;18.90;7.10;;;;;;;;;;4975859;28;20046;-65
2022/10/28 07:44:05;;;;;;;19.80;7.03;;;;;;;;;;4977289;28;20052;-66
2022/10/28 07:46:31;;;;;;;15.35;6.85;;;;;;;;;;4977946;28;20030;-64
2022/10/28 07:48:56;;;;;;;14.20;6.65;;;;;;;;;;4978342;28;20109;-64
2022/10/28 07:51:22;;;;;;;12.95;6.25;;;;;;;;;;4981499;28;20050;-63
2022/10/28 07:53:47;;;;;;;13.25;6.60;;;;;;;;;;4980211;28;20417;-64
2022/10/28 07:56:13;;;;;;;13.13;6.28;;;;;;;;;;4977654;28;21813;-66
2022/10/28 07:58:39;;;;;;;11.70;6.40;;;;;;;;;;4982380;28;20517;-64
2022/10/28 08:01:07;;;;;;;14.77;6.30;;;;;;;;;;4978872;28;20039;-63
2022/10/28 08:03:33;;;;;;;13.98;6.85;;;;;;;;;;4986726;28;20051;-66
2022/10/28 08:06:10;;;;;;;10.95;6.80;;;;;;;;;;4984876;28;20061;-64
2022/10/28 08:08:36;;;;;;;13.70;6.53;;;;;;;;;;4976849;28;20074;-65
2022/10/28 08:11:18;;;;;;;10.32;6.00;;;;;;;;;;4976807;28;20050;-65
2022/10/28 08:13:44;;;;;;;16.63;6.00;;;;;;;;;;4979838;28;20050;-64
2022/10/28 08:16:09;;;;;;;14.32;6.05;;;;;;;;;;4973973;28;20137;-64
2022/10/28 08:18:36;;;;;;;12.88;6.28;;;;;;;;;;4971725;28;20061;-64
2022/10/28 08:21:03;;;;;;;9.60;6.03;;;;;;;;;;4985165;28;21845;-64
2022/10/28 08:23:29;;;;;;;14.52;6.13;;;;;;;;;;4974303;28;20042;-64
2022/10/28 08:25:54;;;;;;;15.23;6.20;;;;;;;;;;4978030;28;20042;-65
2022/10/28 08:28:20;;;;;;;13.65;5.85;;;;;;;;;;4973031;28;20576;-64
2022/10/28 08:30:46;;;;;;;11.23;5.82;;;;;;;;;;4974305;28;20054;-64
2022/10/28 08:33:12;;;;;;;26.05;6.47;;;;;;;;;;4973768;28;20531;-65
2022/10/28 08:35:38;;;;;;;9.32;5.82;;;;;;;;;;4972354;28;20053;-64
2022/10/28 08:38:04;;;;;;;12.60;6.22;;;;;;;;;;4979734;28;20054;-64
2022/10/28 08:41:11;;;;;;;18.15;5.47;;;;;;;;;;4983226;28;20034;-64
2022/10/28 08:43:51;;;;;;;17.02;6.53;;;;;;;;;;4976243;28;20068;-64
2022/10/28 08:46:36;;;;;;;19.35;6.20;;;;;;;;;;4978701;28;20680;-64
2022/10/28 08:49:06;;;;;;;16.85;5.97;;;;;;;;;;4975012;28;20038;-65
2022/10/28 08:51:50;;;;;;;17.60;5.82;;;;;;;;;;4970658;28;20104;-65
2022/10/28 08:54:36;;;;;;;18.17;6.53;;;;;;;;;;4981402;28;20120;-65
2022/10/28 08:57:05;;;;;;;11.07;5.80;;;;;;;;;;4974152;28;20050;-65
2022/10/28 08:59:34;;;;;;;12.63;6.07;;;;;;;;;;4974922;28;20058;-64
2022/10/28 09:02:18;;;;;;;14.07;5.47;;;;;;;;;;4985364;28;20869;-65
2022/10/28 09:04:45;;;;;;;14.43;5.50;;;;;;;;;;4973699;28;20076;-67
2022/10/28 09:07:16;;;;;;;13.55;6.13;;;;;;;;;;4982645;28;20038;-64
2022/10/28 09:09:43;;;;;;;15.68;5.63;;;;;;;;;;4978404;28;20156;-67
2022/10/28 09:12:24;;;;;;;13.30;5.63;;;;;;;;;;4969122;28;20497;-67
2022/10/28 09:15:12;;;;;;;12.48;5.82;;;;;;;;;;4969786;28;20050;-66
2022/10/28 09:17:58;;;;;;;16.58;5.15;;;;;;;;;;4976107;28;20050;-65
2022/10/28 09:20:27;;;;;;;10.90;5.03;;;;;;;;;;4973487;28;20054;-65
2022/10/28 09:22:55;;;;;;;16.48;7.97;;;;;;;;;;4975059;28;20050;-65
2022/10/28 09:25:39;;;;;;;15.15;5.90;;;;;;;;;;4976219;28;20433;-65
2022/10/28 09:28:35;;;;;;;12.68;6.18;;;;;;;;;;4971803;28;20100;-67
2022/10/28 09:31:15;;;;;;;17.25;5.72;;;;;;;;;;4975915;28;20058;-65
2022/10/28 09:34:00;;;;;;;14.95;5.25;;;;;;;;;;4974793;28;20145;-65
2022/10/28 09:37:04;;;;;;;15.98;5.47;;;;;;;;;;4980817;28;20097;-64
2022/10/28 09:39:40;;;;;;;15.73;6.28;;;;;;;;;;4975143;28;20061;-66
2022/10/28 09:42:12;;;;;;;18.52;5.82;;;;;;;;;;4978360;28;20047;-64
2022/10/28 09:44:42;;;;;;;15.75;5.40;;;;;;;;;;4971938;28;20038;-66
2022/10/28 09:47:16;;;;;;;13.57;4.95;;;;;;;;;;4975238;28;20387;-66
2022/10/28 09:49:42;;;;;;;16.55;5.57;;;;;;;;;;4969216;28;20050;-66
2022/10/28 09:52:08;;;;;;;12.13;4.68;;;;;;;;;;4978193;28;20031;-65
2022/10/28 09:54:43;;;;;;;13.77;4.85;;;;;;;;;;4984783;28;20081;-64
2022/10/28 09:57:09;;;;;;;10.90;4.30;;;;;;;;;;4975563;28;20103;-65
2022/10/28 09:59:34;;;;;;;13.43;5.18;;;;;;;;;;4975735;28;20042;-64
2022/10/28 10:02:01;;;;;;;15.38;5.03;;;;;;;;;;4978369;28;20448;-65
2022/10/28 10:04:30;;;;;;;12.30;5.18;;;;;;;;;;4973777;28;20034;-65
2022/10/28 10:07:13;;;;;;;15.93;5.32;;;;;;;;;;4981000;28;20034;-64
2022/10/28 10:09:39;;;;;;;11.32;4.70;;;;;;;;;;4979799;28;20054;-65
2022/10/28 10:12:07;;;;;;;13.15;4.90;;;;;;;;;;4979850;28;20050;-65
2022/10/28 10:14:41;;;;;;;12.25;4.70;;;;;;;;;;4982538;28;20059;-65
2022/10/28 10:17:20;;;;;;;16.48;4.60;;;;;;;;;;4976355;28;20085;-65
2022/10/28 10:20:06;;;;;;;9.30;4.68;;;;;;;;;;4979468;28;20116;-65
2022/10/28 10:22:42;;;;;;;14.93;4.53;;;;;;;;;;4983734;28;20172;-65
2022/10/28 10:25:20;;;;;;;10.88;4.57;;;;;;;;;;4973612;28;20062;-65
2022/10/28 10:28:02;;;;;;;15.98;4.88;;;;;;;;;;4969634;28;20062;-65
2022/10/28 10:30:32;;;;;;;12.00;4.57;;;;;;;;;;4978756;28;20065;-65
2022/10/28 10:32:58;;;;;;;11.80;4.70;;;;;;;;;;4984771;28;20096;-65
2022/10/28 10:35:29;;;;;;;12.35;4.60;;;;;;;;;;4973726;28;20065;-65
2022/10/28 10:38:00;;;;;;;13.25;5.03;;;;;;;;;;4965560;28;20502;-65
2022/10/28 10:40:33;;;;;;;11.75;4.82;;;;;;;;;;4973461;28;20034;-64
2022/10/28 10:43:16;;;;;;;25.58;5.07;;;;;;;;;;4968254;28;20145;-64
2022/10/28 10:46:01;;;;;;;20.90;6.43;;;;;;;;;;4972425;28;20050;-64
2022/10/28 10:48:34;;;;;;;14.57;5.10;;;;;;;;;;4977385;28;20118;-66
2022/10/28 10:51:07;;;;;;;12.18;4.70;;;;;;;;;;4970311;28;20046;-64
2022/10/28 10:53:34;;;;;;;15.07;4.40;;;;;;;;;;4974804;28;20043;-65
2022/10/28 10:56:09;;;;;;;13.30;4.95;;;;;;;;;;4970310;28;20054;-63
2022/10/28 10:58:46;;;;;;;24.80;5.25;;;;;;;;;;4977078;28;20054;-67
2022/10/28 11:01:18;;;;;;;16.58;4.28;;;;;;;;;;4972475;28;20052;-64
2022/10/28 11:03:54;;;;;;;13.68;4.50;;;;;;;;;;4969130;28;20104;-66
2022/10/28 11:06:32;;;;;;;19.02;4.50;;;;;;;;;;4980214;28;20500;-64
2022/10/28 11:09:02;;;;;;;16.77;4.88;;;;;;;;;;4969914;28;20522;-66
2022/10/28 11:11:38;;;;;;;16.23;4.88;;;;;;;;;;4974207;28;20054;-65
2022/10/28 11:14:12;;;;;;;13.63;4.30;;;;;;;;;;4970353;28;20065;-64
2022/10/28 11:16:51;;;;;;;12.30;4.63;;;;;;;;;;4976521;28;20141;-64
2022/10/28 11:19:40;;;;;;;12.85;4.50;;;;;;;;;;4976405;28;20031;-64
2022/10/28 11:22:32;;;;;;;15.85;4.25;;;;;;;;;;4977994;28;20105;-65
2022/10/28 11:25:01;;;;;;;14.47;4.30;;;;;;;;;;4972066;28;20101;-64
2022/10/28 11:27:51;;;;;;;11.40;4.32;;;;;;;;;;4975132;28;20610;-65
2022/10/28 11:30:20;;;;;;;12.65;4.13;;;;;;;;;;4976766;28;20077;-65
2022/10/28 11:32:51;;;;;;;14.73;4.00;;;;;;;;;;4979047;28;20173;-65
2022/10/28 11:35:34;;;;;;;16.80;4.25;;;;;;;;;;4983056;28;20075;-64
2022/10/28 11:38:30;;;;;;;10.40;4.00;;;;;;;;;;4985807;28;20466;-65
2022/10/28 11:40:59;;;;;;;9.55;3.90;;;;;;;;;;4979281;28;20051;-65
2022/10/28 11:43:45;;;;;;;12.02;4.63;;;;;;;;;;4976030;28;20050;-65
2022/10/28 11:46:37;;;;;;;11.48;4.38;;;;;;;;;;4978499;28;20045;-65
2022/10/28 11:49:15;;;;;;;12.15;4.00;;;;;;;;;;4966563;28;20046;-64
2022/10/28 11:52:07;;;;;;;7.65;3.75;;;;;;;;;;4981681;28;20076;-65
2022/10/28 11:54:43;;;;;;;12.60;3.53;;;;;;;;;;4983215;28;20042;-64
2022/10/28 11:57:14;;;;;;;13.07;4.32;;;;;;;;;;4981506;28;20100;-65
2022/10/28 11:59:58;;;;;;;10.50;3.55;;;;;;;;;;4974248;28;20208;-65
2022/10/28 12:03:01;;;;;;;14.60;4.20;;;;;;;;;;4980113;28;20783;-65
2022/10/28 12:05:44;;;;;;;13.07;3.55;;;;;;;;;;4976231;28;20050;-64
2022/10/28 12:08:24;;;;;;;17.77;4.10;;;;;;;;;;4984266;28;20668;-65
2022/10/28 12:11:03;;;;;;;7.93;3.67;;;;;;;;;;4981007;28;20050;-65
2022/10/28 12:13:42;;;;;;;11.55;3.90;;;;;;;;;;4981185;28;20034;-65
2022/10/28 12:16:42;;;;;;;7.57;3.53;;;;;;;;;;4975234;28;20520;-65
2022/10/28 12:19:17;;;;;;;11.60;3.75;;;;;;;;;;4978341;28;20457;-64
2022/10/28 12:22:13;;;;;;;7.40;3.28;;;;;;;;;;4981323;28;20042;-65
2022/10/28 12:24:43;;;;;;;13.73;3.70;;;;;;;;;;4968706;28;20457;-65
2022/10/28 12:27:26;;;;;;;15.65;4.05;;;;;;;;;;4978470;28;20054;-66
2022/10/28 12:29:56;;;;;;;16.67;3.65;;;;;;;;;;4976151;28;20139;-65
2022/10/28 12:32:28;;;;;;;11.90;3.80;;;;;;;;;;4974290;28;20055;-65
2022/10/28 12:35:14;;;;;;;11.63;3.70;;;;;;;;;;4973891;28;20449;-66
2022/10/28 12:38:01;;;;;;;15.93;3.55;;;;;;;;;;4977610;28;20293;-65
2022/10/28 12:40:32;;;;;;;14.35;4.55;;;;;;;;;;4972790;28;20059;-65
2022/10/28 12:43:17;;;;;;;16.23;4.55;;;;;;;;;;4969652;28;20048;-65
2022/10/28 12:45:47;;;;;;;13.35;3.80;;;;;;;;;;4977065;28;20058;-64
2022/10/28 12:48:30;;;;;;;13.88;4.20;;;;;;;;;;4975672;28;20464;-65
2022/10/28 12:51:01;;;;;;;17.80;5.30;;;;;;;;;;4973306;28;20133;-65
2022/10/28 12:53:47;;;;;;;17.75;4.75;;;;;;;;;;4971582;28;20540;-65
2022/10/28 12:56:23;;;;;;;13.20;4.47;;;;;;;;;;4970819;28;20082;-66
2022/10/28 12:59:12;;;;;;;16.75;4.80;;;;;;;;;;4971107;28;20133;-65
2022/10/28 13:01:38;;;;;;;13.15;4.55;;;;;;;;;;4972252;28;20068;-65
2022/10/28 13:04:04;;;;;;;11.98;3.97;;;;;;;;;;4969153;28;20474;-65
2022/10/28 13:07:00;;;;;;;10.48;3.92;;;;;;;;;;4979076;28;20497;-65
2022/10/28 13:09:36;;;;;;;10.52;3.65;;;;;;;;;;4983218;28;20062;-65
2022/10/28 13:12:23;;;;;;;17.67;3.78;;;;;;;;;;4987157;28;20077;-65
2022/10/28 13:15:26;;;;;;;16.20;4.05;;;;;;;;;;4982343;28;20433;-65
2022/10/28 13:17:51;;;;;;;12.82;3.30;;;;;;;;;;4982546;28;20058;-68
2022/10/28 13:20:38;;;;;;;6.03;3.10;;;;;;;;;;4988097;28;20054;-66
2022/10/28 13:23:27;;;;;;;13.43;3.55;;;;;;;;;;4983921;28;20137;-66
2022/10/28 13:26:11;;;;;;;12.32;3.75;;;;;;;;;;4981067;28;20051;-65
2022/10/28 13:28:45;;;;;;;11.52;3.40;;;;;;;;;;4980760;28;20457;-65
2022/10/28 13:31:10;;;;;;;9.30;2.90;;;;;;;;;;4981729;28;20038;-64
2022/10/28 13:33:37;;;;;;;9.60;3.33;;;;;;;;;;4981512;28;20054;-65
2022/10/28 13:36:07;;;;;;;10.05;2.90;;;;;;;;;;4983018;28;20052;-65
2022/10/28 13:38:33;;;;;;;10.57;3.10;;;;;;;;;;4985095;28;20677;-65
2022/10/28 13:40:59;;;;;;;8.93;3.40;;;;;;;;;;4981477;28;20462;-65
2022/10/28 13:43:47;;;;;;;14.60;3.03;;;;;;;;;;4968341;28;20038;-64
2022/10/28 13:46:51;;;;;;;11.00;3.10;;;;;;;;;;4938524;28;20055;-66
2022/10/28 13:49:23;;;;;;;11.48;3.45;;;;;;;;;;4979509;28;20030;-65
2022/10/28 13:52:01;;;;;;;13.20;3.42;;;;;;;;;;4979044;28;20856;-65
2022/10/28 13:54:41;;;;;;;12.48;3.75;;;;;;;;;;4976713;28;20137;-65
2022/10/28 13:57:16;;;;;;;21.88;6.05;;;;;;;;;;4979802;28;20149;-65
2022/10/28 13:59:55;;;;;;;14.25;4.78;;;;;;;;;;4985513;28;20038;-65
2022/10/28 14:02:38;;;;;;;14.25;4.00;;;;;;;;;;4976126;28;20050;-65
2022/10/28 14:05:06;;;;;;;13.30;4.10;;;;;;;;;;4971269;28;20038;-64
2022/10/28 14:07:35;;;;;;;11.95;4.38;;;;;;;;;;4972825;28;20077;-65
2022/10/28 14:10:25;;;;;;;12.85;3.88;;;;;;;;;;4969592;28;20055;-64
2022/10/28 14:13:15;;;;;;;15.65;4.32;;;;;;;;;;4968196;28;20101;-65
2022/10/28 14:15:41;;;;;;;13.43;4.38;;;;;;;;;;4972488;28;20074;-65
2022/10/28 14:18:13;;;;;;;13.95;3.65;;;;;;;;;;4971919;28;20145;-64
2022/10/28 14:20:41;;;;;;;11.48;3.67;;;;;;;;;;4971115;28;20074;-65
2022/10/28 14:23:35;;;;;;;13.02;4.18;;;;;;;;;;4970467;28;20061;-65
2022/10/28 14:26:04;;;;;;;15.63;3.80;;;;;;;;;;4964936;28;20061;-65
2022/10/28 14:28:30;;;;;;;14.70;4.38;;;;;;;;;;4969954;28;20049;-65
2022/10/28 14:31:10;;;;;;;14.48;3.85;;;;;;;;;;4970188;28;20042;-65
2022/10/28 14:33:42;;;;;;;12.52;4.10;;;;;;;;;;4969098;28;20080;-65
2022/10/28 14:36:17;;;;;;;12.85;3.70;;;;;;;;;;4970377;28;20141;-65
2022/10/28 14:39:02;;;;;;;10.27;3.53;;;;;;;;;;4967366;28;20050;-65
2022/10/28 14:41:49;;;;;;;15.95;4.10;;;;;;;;;;4973121;28;20169;-61
2022/10/28 14:44:23;;;;;;;11.50;3.55;;;;;;;;;;4962778;28;20894;-62
2022/10/28 14:47:26;;;;;;;13.68;3.65;;;;;;;;;;4967009;28;20045;-62
2022/10/28 14:50:15;;;;;;;11.90;3.50;;;;;;;;;;4972969;28;20065;-66
2022/10/28 14:52:43;;;;;;;14.45;3.63;;;;;;;;;;4970538;28;20551;-65
2022/10/28 14:55:20;;;;;;;14.00;3.58;;;;;;;;;;4976190;28;20164;-61
2022/10/28 14:57:46;;;;;;;13.40;4.13;;;;;;;;;;4981550;28;20046;-64
2022/10/28 15:00:24;;;;;;;15.07;3.80;;;;;;;;;;4976597;28;20043;-63
2022/10/28 15:02:50;;;;;;;13.68;4.15;;;;;;;;;;4985283;28;20053;-62